createdAt,value
2019-03-30T10:29:26.868Z,0.735
2019-03-30T10:29:37.958Z,0.583
2019-03-30T10:29:46.571Z,0.533
2019-03-30T10:29:53.136Z,0.485
2019-03-30T10:30:04.502Z,0.437
2019-03-30T10:30:11.101Z,0.437
2019-03-30T10:30:17.639Z,0.437
2019-03-30T10:30:24.260Z,0.437
2019-03-30T10:30:30.801Z,0.437
2019-03-30T10:30:37.369Z,0.39
2019-03-30T10:30:43.982Z,0.39
2019-03-30T10:30:50.511Z,0.39
2019-03-30T10:30:57.086Z,0.39
2019-03-30T10:31:03.646Z,0.39
2019-03-30T10:31:10.219Z,0.39
2019-03-30T10:31:16.798Z,0.39
2019-03-30T10:31:24.937Z,0.344
2019-03-30T10:31:34.693Z,0.344
2019-03-30T10:31:44.477Z,0.344
2019-03-30T10:31:51.017Z,0.344
2019-03-30T10:32:01.267Z,0.344
2019-03-30T10:32:07.380Z,0.39
2019-03-30T10:32:13.900Z,0.344
2019-03-30T10:32:20.524Z,0.344
2019-03-30T10:32:27.060Z,0.344
2019-03-30T10:32:35.235Z,0.344
2019-03-30T10:32:41.820Z,0.344
2019-03-30T10:32:49.369Z,0.344
2019-03-30T10:32:56.586Z,0.344
2019-03-30T10:33:04.730Z,0.344
2019-03-30T10:33:11.233Z,0.299
2019-03-30T10:33:17.776Z,0.299
2019-03-30T10:33:24.360Z,0.344
2019-03-30T10:33:30.955Z,0.299
2019-03-30T10:33:37.519Z,0.344
2019-03-30T10:33:44.099Z,0.299
2019-03-30T10:33:50.656Z,0.299
2019-03-30T10:33:57.241Z,0.299
2019-03-30T10:34:03.858Z,0.299
2019-03-30T10:34:10.338Z,0.299
2019-03-30T10:34:18.005Z,0.299
2019-03-30T10:34:25.077Z,0.299
2019-03-30T10:34:31.663Z,0.299
2019-03-30T10:34:39.950Z,0.299
2019-03-30T10:34:46.426Z,0.299
2019-03-30T10:34:52.993Z,0.299
2019-03-30T10:34:59.580Z,0.299
2019-03-30T10:35:06.146Z,0.299
2019-03-30T10:35:13.735Z,0.299
2019-03-30T10:35:20.924Z,0.299
2019-03-30T10:35:45.285Z,0.299
2019-03-30T10:35:51.858Z,0.299
2019-03-30T10:35:58.413Z,0.299
2019-03-30T10:36:04.988Z,0.299
2019-03-30T10:36:11.548Z,0.299
2019-03-30T10:36:18.083Z,0.39
2019-03-30T10:36:24.628Z,0.583
2019-03-30T10:36:31.203Z,0.583
2019-03-30T10:36:37.787Z,0.437
2019-03-30T10:36:44.378Z,0.39
2019-03-30T10:36:50.935Z,0.39
2019-03-30T10:36:57.516Z,0.344
2019-03-30T10:37:04.041Z,0.344
2019-03-30T10:37:10.618Z,0.344
2019-03-30T10:37:17.174Z,0.344
2019-03-30T10:37:23.748Z,0.344
2019-03-30T10:37:30.301Z,0.39
2019-03-30T10:37:36.859Z,0.39
2019-03-30T10:37:43.428Z,0.39
2019-03-30T10:37:50.004Z,0.344
2019-03-30T10:37:56.586Z,0.344
2019-03-30T10:38:03.174Z,0.344
2019-03-30T10:38:10.066Z,0.344
2019-03-30T10:38:18.125Z,0.344
2019-03-30T10:38:24.548Z,0.344
2019-03-30T10:38:34.301Z,0.39
2019-03-30T10:38:40.881Z,0.344
2019-03-30T10:38:49.103Z,0.344
2019-03-30T10:38:57.716Z,0.344
2019-03-30T10:39:06.687Z,0.299
2019-03-30T10:39:13.578Z,0.299
2019-03-30T10:39:20.350Z,0.299
2019-03-30T10:39:29.703Z,0.344
2019-03-30T10:39:36.622Z,0.299
2019-03-30T10:39:43.062Z,0.299
2019-03-30T10:39:51.289Z,0.299
2019-03-30T10:39:57.826Z,0.299
2019-03-30T10:40:10.804Z,0.299
2019-03-30T10:40:21.116Z,0.299
2019-03-30T10:40:27.583Z,0.299
2019-03-30T10:40:41.822Z,0.299
2019-03-30T10:40:48.516Z,0.299
2019-03-30T10:40:56.706Z,0.299
2019-03-30T10:41:09.510Z,0.299
2019-03-30T10:41:16.987Z,0.299
2019-03-30T10:41:24.139Z,0.299
2019-03-30T10:41:31.583Z,0.299
2019-03-30T10:41:39.390Z,0.299
2019-03-30T10:41:45.479Z,0.299
2019-03-30T10:41:52.494Z,0.299
2019-03-30T10:41:59.762Z,0.299
2019-03-30T10:42:08.714Z,0.299
2019-03-30T10:42:22.133Z,0.299
2019-03-30T10:42:33.502Z,0.299
2019-03-30T10:42:45.488Z,0.299
2019-03-30T10:42:52.626Z,0.299
2019-03-30T10:43:00.852Z,0.299
2019-03-30T10:43:08.634Z,0.299
2019-03-30T10:43:15.491Z,0.299
2019-03-30T10:43:27.765Z,0.255
2019-03-30T10:43:37.012Z,0.255
2019-03-30T10:43:45.866Z,0.255
2019-03-30T10:43:57.594Z,0.255
2019-03-30T10:44:04.202Z,0.255
2019-03-30T10:44:10.721Z,0.255
2019-03-30T10:44:17.604Z,0.255
2019-03-30T10:44:25.651Z,0.255
2019-03-30T10:44:40.436Z,0.255
2019-03-30T10:44:48.745Z,0.255
2019-03-30T10:44:57.650Z,0.255
2019-03-30T10:45:04.916Z,0.255
2019-03-30T10:45:11.188Z,0.299
2019-03-30T10:45:17.575Z,0.255
2019-03-30T10:45:24.174Z,0.299
2019-03-30T10:45:30.735Z,0.255
2019-03-30T10:45:37.714Z,0.255
2019-03-30T10:45:45.889Z,0.255
2019-03-30T10:45:54.395Z,0.255
2019-03-30T10:46:03.442Z,0.255
2019-03-30T10:46:12.238Z,0.255
2019-03-30T10:46:23.924Z,0.255
2019-03-30T10:46:32.852Z,0.255
2019-03-30T10:46:40.834Z,0.255
2019-03-30T10:46:50.242Z,0.255
2019-03-30T10:47:05.433Z,0.255
2019-03-30T10:47:12.096Z,0.255
2019-03-30T10:47:22.332Z,0.255
2019-03-30T10:47:30.046Z,0.255
2019-03-30T10:47:38.369Z,0.255
2019-03-30T10:47:46.743Z,0.255
2019-03-30T10:47:55.806Z,0.255
2019-03-30T10:48:03.753Z,0.255
2019-03-30T10:48:10.831Z,0.255
2019-03-30T10:48:20.241Z,0.255
2019-03-30T10:48:29.663Z,0.255
2019-03-30T10:48:37.027Z,0.255
2019-03-30T10:48:46.319Z,0.255
2019-03-30T10:48:55.989Z,0.255
2019-03-30T10:49:06.173Z,0.255
2019-03-30T10:49:13.752Z,0.255
2019-03-30T10:49:20.800Z,0.255
2019-03-30T10:49:27.380Z,0.255
2019-03-30T10:49:34.052Z,0.255
2019-03-30T10:49:40.497Z,0.255
2019-03-30T10:49:47.113Z,0.255
2019-03-30T10:49:53.613Z,0.255
2019-03-30T10:50:00.468Z,0.255
2019-03-30T10:50:08.403Z,0.255
2019-03-30T10:50:14.922Z,0.255
2019-03-30T10:50:21.478Z,0.255
2019-03-30T10:50:28.065Z,0.255
2019-03-30T10:50:34.757Z,0.255
2019-03-30T10:50:41.208Z,0.255
2019-03-30T10:50:47.793Z,0.255
2019-03-30T10:50:54.368Z,0.255
2019-03-30T10:51:00.960Z,0.255
2019-03-30T10:51:07.575Z,0.255
2019-03-30T10:51:14.043Z,0.255
2019-03-30T10:51:22.304Z,0.255
2019-03-30T10:51:28.780Z,0.255
2019-03-30T10:51:35.369Z,0.255
2019-03-30T10:51:41.928Z,0.255
2019-03-30T10:51:54.584Z,0.255
2019-03-30T10:52:01.508Z,0.255
2019-03-30T10:52:09.079Z,0.255
2019-03-30T10:52:17.383Z,0.255
2019-03-30T10:52:27.566Z,0.255
2019-03-30T10:52:34.205Z,0.255
2019-03-30T10:52:40.764Z,0.255
2019-03-30T10:52:47.318Z,0.255
2019-03-30T10:52:53.941Z,0.255
2019-03-30T10:53:00.462Z,0.255
2019-03-30T10:53:07.035Z,0.255
2019-03-30T10:53:13.614Z,0.255
2019-03-30T10:53:20.167Z,0.255
2019-03-30T10:53:31.565Z,0.255
2019-03-30T10:53:38.145Z,0.255
2019-03-30T10:53:44.722Z,0.255
2019-03-30T10:53:51.374Z,0.255
2019-03-30T10:53:57.870Z,0.255
2019-03-30T10:54:04.548Z,0.255
2019-03-30T10:54:11.048Z,0.255
2019-03-30T10:54:17.761Z,0.255
2019-03-30T10:54:24.359Z,0.255
2019-03-30T10:54:30.765Z,0.255
2019-03-30T10:54:53.249Z,0.255
2019-03-30T10:54:59.844Z,0.255
2019-03-30T10:55:06.428Z,0.255
2019-03-30T10:55:12.981Z,0.255
2019-03-30T10:55:19.550Z,0.255
2019-03-30T10:55:26.091Z,0.255
2019-03-30T10:55:32.745Z,0.255
2019-03-30T10:55:40.881Z,0.255
2019-03-30T10:55:47.462Z,0.255
2019-03-30T10:55:54.058Z,0.255
2019-03-30T10:56:00.642Z,0.255
2019-03-30T10:56:07.219Z,0.255
2019-03-30T10:56:13.862Z,0.255
2019-03-30T10:56:20.328Z,0.255
2019-03-30T10:56:26.893Z,0.255
2019-03-30T10:56:33.486Z,0.255
2019-03-30T10:56:40.114Z,0.255
2019-03-30T10:56:46.644Z,0.255
2019-03-30T10:56:53.224Z,0.255
2019-03-30T10:57:03.133Z,0.255
2019-03-30T10:57:09.562Z,0.255
2019-03-30T10:57:17.717Z,0.213
2019-03-30T10:57:24.298Z,0.255
2019-03-30T10:57:32.471Z,0.255
2019-03-30T10:57:39.011Z,0.255
2019-03-30T10:57:45.704Z,0.255
2019-03-30T10:57:52.163Z,0.255
2019-03-30T10:57:59.181Z,0.255
2019-03-30T10:58:05.250Z,0.255
2019-03-30T10:58:11.936Z,0.213
2019-03-30T10:58:18.453Z,0.255
2019-03-30T10:58:28.285Z,0.255
2019-03-30T10:58:37.776Z,0.213
2019-03-30T10:58:44.524Z,0.255
2019-03-30T10:58:51.179Z,0.255
2019-03-30T10:58:59.244Z,0.255
2019-03-30T10:59:05.816Z,0.255
2019-03-30T10:59:12.463Z,0.255
2019-03-30T10:59:18.985Z,0.255
2019-03-30T10:59:25.528Z,0.255
2019-03-30T10:59:32.097Z,0.255
2019-03-30T10:59:38.660Z,0.213
2019-03-30T10:59:45.252Z,0.213
2019-03-30T10:59:51.851Z,0.213
2019-03-30T10:59:58.440Z,0.213
2019-03-30T11:00:05.055Z,0.213
2019-03-30T11:00:11.571Z,0.213
2019-03-30T11:00:19.068Z,0.213
2019-03-30T11:00:27.878Z,0.255
2019-03-30T11:00:34.432Z,0.213
2019-03-30T11:00:41.250Z,0.213
2019-03-30T11:00:47.593Z,0.213
2019-03-30T11:00:54.176Z,0.255
2019-03-30T11:01:00.874Z,0.213
2019-03-30T11:01:07.330Z,0.255
2019-03-30T11:01:13.888Z,0.255
2019-03-30T11:01:23.682Z,0.213
2019-03-30T11:01:30.271Z,0.213
2019-03-30T11:01:36.826Z,0.213
2019-03-30T11:01:43.505Z,0.213
2019-03-30T11:01:49.964Z,0.213
2019-03-30T11:01:56.534Z,0.213
2019-03-30T11:02:03.271Z,0.213
2019-03-30T11:02:09.671Z,0.255
2019-03-30T11:02:26.106Z,0.255
2019-03-30T11:02:32.535Z,0.255
2019-03-30T11:02:40.609Z,0.213
2019-03-30T11:02:47.175Z,0.213
2019-03-30T11:02:53.731Z,0.213
2019-03-30T11:03:00.536Z,0.213
2019-03-30T11:03:06.863Z,0.255
2019-03-30T11:03:13.472Z,0.213
2019-03-30T11:03:20.010Z,0.255
2019-03-30T11:03:26.577Z,0.213
2019-03-30T11:03:33.140Z,0.213
2019-03-30T11:03:39.678Z,0.213
2019-03-30T11:03:46.307Z,0.213
2019-03-30T11:03:52.871Z,0.213
2019-03-30T11:03:59.399Z,0.213
2019-03-30T11:04:05.955Z,0.213
2019-03-30T11:04:12.556Z,0.213
2019-03-30T11:04:19.075Z,0.255
2019-03-30T11:04:25.656Z,0.213
2019-03-30T11:04:32.200Z,0.255
2019-03-30T11:04:43.580Z,0.213
2019-03-30T11:04:50.165Z,0.255
2019-03-30T11:04:56.758Z,0.213
2019-03-30T11:05:03.280Z,0.255
2019-03-30T11:05:09.974Z,0.213
2019-03-30T11:05:16.463Z,0.213
2019-03-30T11:05:23.008Z,0.213
2019-03-30T11:05:29.590Z,0.213
2019-03-30T11:05:36.205Z,0.213
2019-03-30T11:05:42.738Z,0.213
2019-03-30T11:05:49.304Z,0.255
2019-03-30T11:05:55.894Z,0.213
2019-03-30T11:06:02.646Z,0.213
2019-03-30T11:06:09.054Z,0.213
2019-03-30T11:06:18.581Z,0.213
2019-03-30T11:06:25.387Z,0.213
2019-03-30T11:06:31.958Z,0.213
2019-03-30T11:06:41.698Z,0.213
2019-03-30T11:06:48.266Z,0.213
2019-03-30T11:06:56.444Z,0.255
2019-03-30T11:07:04.110Z,0.213
2019-03-30T11:07:11.161Z,0.213
2019-03-30T11:07:17.741Z,0.213
2019-03-30T11:07:24.295Z,0.213
2019-03-30T11:07:30.957Z,0.213
2019-03-30T11:07:37.533Z,0.213
2019-03-30T11:07:44.005Z,0.213
2019-03-30T11:07:50.584Z,0.213
2019-03-30T11:07:57.127Z,0.213
2019-03-30T11:08:03.707Z,0.213
2019-03-30T11:08:10.295Z,0.213
2019-03-30T11:08:17.963Z,0.213
2019-03-30T11:08:25.038Z,0.213
2019-03-30T11:08:31.608Z,0.213
2019-03-30T11:08:38.160Z,0.213
2019-03-30T11:08:44.739Z,0.255
2019-03-30T11:08:51.334Z,0.213
2019-03-30T11:08:57.932Z,0.213
2019-03-30T11:09:04.561Z,0.213
2019-03-30T11:09:11.111Z,0.213
2019-03-30T11:09:17.601Z,0.213
2019-03-30T11:09:24.155Z,0.213
2019-03-30T11:09:30.748Z,0.213
2019-03-30T11:09:37.304Z,0.213
2019-03-30T11:09:44.305Z,0.213
2019-03-30T11:09:50.429Z,0.213
2019-03-30T11:09:56.976Z,0.255
2019-03-30T11:10:03.561Z,0.255
2019-03-30T11:10:10.124Z,0.213
2019-03-30T11:10:16.679Z,0.213
2019-03-30T11:10:23.218Z,0.213
2019-03-30T11:10:33.691Z,0.213
2019-03-30T11:10:39.561Z,0.213
2019-03-30T11:10:46.100Z,0.213
2019-03-30T11:10:52.681Z,0.213
2019-03-30T11:10:59.272Z,0.255
2019-03-30T11:11:05.814Z,0.255
2019-03-30T11:11:12.396Z,0.255
2019-03-30T11:11:18.945Z,0.255
2019-03-30T11:11:25.538Z,0.255
2019-03-30T11:11:32.084Z,0.255
2019-03-30T11:11:38.640Z,0.255
2019-03-30T11:11:45.252Z,0.255
2019-03-30T11:11:51.856Z,0.255
2019-03-30T11:11:58.381Z,0.255
2019-03-30T11:12:05.003Z,0.213
2019-03-30T11:12:11.536Z,0.213
2019-03-30T11:12:18.064Z,0.213
2019-03-30T11:12:24.675Z,0.213
2019-03-30T11:12:31.227Z,0.213
2019-03-30T11:12:37.771Z,0.213
2019-03-30T11:12:44.347Z,0.255
2019-03-30T11:12:52.505Z,0.213
2019-03-30T11:12:59.060Z,0.255
2019-03-30T11:13:05.604Z,0.255
2019-03-30T11:13:12.181Z,0.255
2019-03-30T11:13:18.760Z,0.213
2019-03-30T11:13:25.320Z,0.213
2019-03-30T11:13:31.858Z,0.255
2019-03-30T11:13:38.448Z,0.213
2019-03-30T11:13:45.035Z,0.213
2019-03-30T11:13:51.570Z,0.255
2019-03-30T11:13:58.169Z,0.213
2019-03-30T11:14:04.738Z,0.213
2019-03-30T11:14:11.294Z,0.213
2019-03-30T11:14:17.879Z,0.213
2019-03-30T11:14:24.464Z,0.213
2019-03-30T11:14:31.039Z,0.213
2019-03-30T11:14:37.545Z,0.213
2019-03-30T11:14:44.123Z,0.213
2019-03-30T11:14:50.692Z,0.213
2019-03-30T11:15:05.878Z,0.213
2019-03-30T11:15:11.842Z,0.213
2019-03-30T11:15:18.421Z,0.213
2019-03-30T11:15:24.999Z,0.213
2019-03-30T11:15:34.589Z,0.213
2019-03-30T11:15:41.344Z,0.213
2019-03-30T11:15:47.923Z,0.213
2019-03-30T11:15:54.494Z,0.213
2019-03-30T11:16:01.080Z,0.213
2019-03-30T11:16:07.636Z,0.213
2019-03-30T11:16:14.194Z,0.213
2019-03-30T11:16:20.790Z,0.255
2019-03-30T11:16:27.346Z,0.213
2019-03-30T11:16:33.915Z,0.255
2019-03-30T11:16:40.516Z,0.213
2019-03-30T11:16:47.081Z,0.213
2019-03-30T11:16:53.642Z,0.213
2019-03-30T11:17:00.181Z,0.213
2019-03-30T11:17:06.814Z,0.213
2019-03-30T11:17:13.329Z,0.213
2019-03-30T11:17:19.915Z,0.255
2019-03-30T11:17:26.462Z,0.213
2019-03-30T11:17:33.025Z,0.213
2019-03-30T11:17:39.590Z,0.213
2019-03-30T11:17:46.649Z,0.213
2019-03-30T11:17:52.726Z,0.213
2019-03-30T11:17:59.303Z,0.213
2019-03-30T11:18:05.886Z,0.213
2019-03-30T11:18:12.931Z,0.213
2019-03-30T11:40:01.852Z,0.213
2019-03-30T11:40:07.949Z,0.213
2019-03-30T11:40:14.530Z,0.213
2019-03-30T11:40:21.155Z,0.213
2019-03-30T11:40:27.679Z,0.213
2019-03-30T11:40:34.289Z,0.255
2019-03-30T11:40:40.794Z,0.255
2019-03-30T11:40:47.372Z,0.255
2019-03-30T11:40:53.945Z,0.255
2019-03-30T11:41:00.487Z,0.255
2019-03-30T11:41:07.035Z,0.485
2019-03-30T11:41:13.666Z,0.437
2019-03-30T11:41:20.220Z,0.39
2019-03-30T11:41:26.776Z,0.39
2019-03-30T11:41:33.348Z,0.344
2019-03-30T11:41:39.902Z,0.344
2019-03-30T11:41:46.483Z,0.344
2019-03-30T11:41:53.057Z,0.299
2019-03-30T11:41:59.615Z,0.299
2019-03-30T11:42:06.166Z,0.255
2019-03-30T11:42:12.720Z,0.299
2019-03-30T11:42:22.060Z,0.299
2019-03-30T11:42:29.135Z,0.299
2019-03-30T11:42:35.641Z,0.299
2019-03-30T11:42:42.235Z,0.255
2019-03-30T11:42:48.789Z,0.299
2019-03-30T11:42:55.387Z,0.255
2019-03-30T11:43:13.784Z,0.299
2019-03-30T11:43:19.693Z,0.299
2019-03-30T11:43:27.886Z,0.255
2019-03-30T11:43:34.445Z,0.255
2019-03-30T11:43:40.990Z,0.255
2019-03-30T11:43:47.580Z,0.255
2019-03-30T11:43:54.171Z,0.255
2019-03-30T11:44:00.783Z,0.255
2019-03-30T11:44:07.328Z,0.255
2019-03-30T11:44:15.500Z,0.299
2019-03-30T11:44:22.081Z,0.299
